sensor_id;sensor_type;location;lat;lon;timestamp;P1;durP1;ratioP1;P2;durP2;ratioP2
5762;SDS011;2906;53.282;9.508;2023-11-19T00:00:50;3.10;;;2.80;;
5762;SDS011;2906;53.282;9.508;2023-11-19T00:01:51;3.20;;;2.83;;
5762;SDS011;2906;53.282;9.508;2023-11-19T00:02:53;3.20;;;2.90;;
5762;SDS011;2906;53.282;9.508;2023-11-19T00:03:55;2.47;;;2.28;;
5762;SDS011;2906;53.282;9.508;2023-11-19T00:04:57;3.65;;;2.55;;
5762;SDS011;2906;53.282;9.508;2023-11-19T00:05:58;3.20;;;2.63;;
5762;SDS011;2906;53.282;9.508;2023-11-19T00:07:01;3.42;;;2.55;;
5762;SDS011;2906;53.282;9.508;2023-11-19T00:08:04;2.78;;;2.50;;
5762;SDS011;2906;53.282;9.508;2023-11-19T00:09:08;3.13;;;2.83;;
5762;SDS011;2906;53.282;9.508;2023-11-19T00:10:10;2.75;;;2.55;;
5762;SDS011;2906;53.282;9.508;2023-11-19T00:11:11;7.53;;;2.20;;
5762;SDS011;2906;53.282;9.508;2023-11-19T00:12:15;2.25;;;2.05;;
5762;SDS011;2906;53.282;9.508;2023-11-19T00:13:17;3.20;;;2.50;;
5762;SDS011;2906;53.282;9.508;2023-11-19T00:14:20;2.70;;;2.50;;
5762;SDS011;2906;53.282;9.508;2023-11-19T00:15:21;2.50;;;2.30;;
5762;SDS011;2906;53.282;9.508;2023-11-19T00:16:24;4.15;;;2.70;;
5762;SDS011;2906;53.282;9.508;2023-11-19T00:17:25;3.20;;;2.45;;
5762;SDS011;2906;53.282;9.508;2023-11-19T00:18:27;2.35;;;2.15;;
5762;SDS011;2906;53.282;9.508;2023-11-19T00:19:29;2.35;;;2.03;;
5762;SDS011;2906;53.282;9.508;2023-11-19T00:20:30;2.20;;;2.00;;
5762;SDS011;2906;53.282;9.508;2023-11-19T00:21:35;2.47;;;2.10;;
5762;SDS011;2906;53.282;9.508;2023-11-19T00:22:36;2.35;;;2.15;;
5762;SDS011;2906;53.282;9.508;2023-11-19T00:23:39;2.90;;;2.47;;
5762;SDS011;2906;53.282;9.508;2023-11-19T00:24:40;2.35;;;2.15;;
5762;SDS011;2906;53.282;9.508;2023-11-19T00:25:42;4.72;;;1.80;;
5762;SDS011;2906;53.282;9.508;2023-11-19T00:26:44;1.83;;;1.73;;
5762;SDS011;2906;53.282;9.508;2023-11-19T00:27:46;2.17;;;1.90;;
5762;SDS011;2906;53.282;9.508;2023-11-19T00:28:48;2.78;;;2.10;;
5762;SDS011;2906;53.282;9.508;2023-11-19T00:29:52;2.30;;;2.10;;
5762;SDS011;2906;53.282;9.508;2023-11-19T00:30:53;2.40;;;2.03;;
5762;SDS011;2906;53.282;9.508;2023-11-19T00:31:56;2.70;;;2.10;;
5762;SDS011;2906;53.282;9.508;2023-11-19T00:32:57;2.10;;;2.00;;
5762;SDS011;2906;53.282;9.508;2023-11-19T00:33:59;2.30;;;2.10;;
5762;SDS011;2906;53.282;9.508;2023-11-19T00:35:01;2.47;;;1.77;;
5762;SDS011;2906;53.282;9.508;2023-11-19T00:36:03;2.13;;;1.70;;
5762;SDS011;2906;53.282;9.508;2023-11-19T00:37:05;1.75;;;1.55;;
5762;SDS011;2906;53.282;9.508;2023-11-19T00:38:06;2.50;;;2.30;;
5762;SDS011;2906;53.282;9.508;2023-11-19T00:39:08;2.25;;;2.05;;
5762;SDS011;2906;53.282;9.508;2023-11-19T00:40:10;2.00;;;1.67;;
5762;SDS011;2906;53.282;9.508;2023-11-19T00:41:11;2.42;;;2.22;;
5762;SDS011;2906;53.282;9.508;2023-11-19T00:42:16;2.50;;;2.30;;
5762;SDS011;2906;53.282;9.508;2023-11-19T00:43:17;2.40;;;2.20;;
5762;SDS011;2906;53.282;9.508;2023-11-19T00:44:22;1.67;;;1.58;;
5762;SDS011;2906;53.282;9.508;2023-11-19T00:45:25;2.95;;;1.80;;
5762;SDS011;2906;53.282;9.508;2023-11-19T00:46:28;2.15;;;1.95;;
5762;SDS011;2906;53.282;9.508;2023-11-19T00:47:29;2.78;;;2.00;;
5762;SDS011;2906;53.282;9.508;2023-11-19T00:48:31;10.57;;;1.80;;
5762;SDS011;2906;53.282;9.508;2023-11-19T00:49:32;1.95;;;1.85;;
5762;SDS011;2906;53.282;9.508;2023-11-19T00:50:35;3.53;;;1.80;;
5762;SDS011;2906;53.282;9.508;2023-11-19T00:51:36;2.08;;;1.90;;
5762;SDS011;2906;53.282;9.508;2023-11-19T00:52:38;7.28;;;2.20;;
5762;SDS011;2906;53.282;9.508;2023-11-19T00:53:40;2.30;;;2.10;;
5762;SDS011;2906;53.282;9.508;2023-11-19T00:54:42;5.75;;;1.50;;
5762;SDS011;2906;53.282;9.508;2023-11-19T00:55:43;1.90;;;1.80;;
5762;SDS011;2906;53.282;9.508;2023-11-19T00:56:45;1.50;;;1.40;;
5762;SDS011;2906;53.282;9.508;2023-11-19T00:57:47;2.53;;;2.10;;
5762;SDS011;2906;53.282;9.508;2023-11-19T00:58:48;2.03;;;1.92;;
5762;SDS011;2906;53.282;9.508;2023-11-19T00:59:51;2.00;;;1.77;;
5762;SDS011;2906;53.282;9.508;2023-11-19T01:00:53;2.60;;;1.98;;
5762;SDS011;2906;53.282;9.508;2023-11-19T01:01:57;1.80;;;1.70;;
5762;SDS011;2906;53.282;9.508;2023-11-19T01:02:59;2.40;;;2.20;;
5762;SDS011;2906;53.282;9.508;2023-11-19T01:04:01;1.80;;;1.70;;
5762;SDS011;2906;53.282;9.508;2023-11-19T01:05:03;2.25;;;2.08;;
5762;SDS011;2906;53.282;9.508;2023-11-19T01:06:04;2.10;;;1.70;;
5762;SDS011;2906;53.282;9.508;2023-11-19T01:07:08;1.80;;;1.70;;
5762;SDS011;2906;53.282;9.508;2023-11-19T01:08:12;2.10;;;1.90;;
5762;SDS011;2906;53.282;9.508;2023-11-19T01:09:16;2.50;;;2.10;;
5762;SDS011;2906;53.282;9.508;2023-11-19T01:10:17;2.40;;;2.20;;
5762;SDS011;2906;53.282;9.508;2023-11-19T01:11:20;3.38;;;1.70;;
5762;SDS011;2906;53.282;9.508;2023-11-19T01:12:21;2.83;;;2.30;;
5762;SDS011;2906;53.282;9.508;2023-11-19T01:13:24;2.80;;;2.60;;
5762;SDS011;2906;53.282;9.508;2023-11-19T01:14:25;2.30;;;2.10;;
5762;SDS011;2906;53.282;9.508;2023-11-19T01:15:28;2.55;;;2.35;;
5762;SDS011;2906;53.282;9.508;2023-11-19T01:16:30;2.45;;;2.15;;
5762;SDS011;2906;53.282;9.508;2023-11-19T01:17:33;2.40;;;2.20;;
5762;SDS011;2906;53.282;9.508;2023-11-19T01:18:34;2.47;;;2.28;;
5762;SDS011;2906;53.282;9.508;2023-11-19T01:19:36;2.50;;;2.30;;
5762;SDS011;2906;53.282;9.508;2023-11-19T01:20:38;3.83;;;2.75;;
5762;SDS011;2906;53.282;9.508;2023-11-19T01:21:41;2.80;;;2.60;;
5762;SDS011;2906;53.282;9.508;2023-11-19T01:22:43;3.13;;;2.92;;
5762;SDS011;2906;53.282;9.508;2023-11-19T01:23:46;3.22;;;2.92;;
5762;SDS011;2906;53.282;9.508;2023-11-19T01:24:47;5.82;;;3.00;;
5762;SDS011;2906;53.282;9.508;2023-11-19T01:25:49;3.33;;;3.03;;
5762;SDS011;2906;53.282;9.508;2023-11-19T01:26:51;3.20;;;3.00;;
5762;SDS011;2906;53.282;9.508;2023-11-19T01:27:54;3.05;;;2.85;;
5762;SDS011;2906;53.282;9.508;2023-11-19T01:28:58;3.70;;;3.30;;
5762;SDS011;2906;53.282;9.508;2023-11-19T01:30:01;3.05;;;2.85;;
5762;SDS011;2906;53.282;9.508;2023-11-19T01:31:03;3.35;;;3.05;;
5762;SDS011;2906;53.282;9.508;2023-11-19T01:32:09;4.32;;;3.20;;
5762;SDS011;2906;53.282;9.508;2023-11-19T01:33:12;3.95;;;3.55;;
5762;SDS011;2906;53.282;9.508;2023-11-19T01:34:14;3.53;;;3.22;;
5762;SDS011;2906;53.282;9.508;2023-11-19T01:35:16;3.60;;;3.30;;
5762;SDS011;2906;53.282;9.508;2023-11-19T01:36:18;4.03;;;3.63;;
5762;SDS011;2906;53.282;9.508;2023-11-19T01:37:20;4.57;;;3.95;;
5762;SDS011;2906;53.282;9.508;2023-11-19T01:38:23;3.80;;;3.50;;
5762;SDS011;2906;53.282;9.508;2023-11-19T01:39:24;4.07;;;3.60;;
5762;SDS011;2906;53.282;9.508;2023-11-19T01:40:26;4.70;;;3.90;;
5762;SDS011;2906;53.282;9.508;2023-11-19T01:41:27;4.38;;;3.75;;
5762;SDS011;2906;53.282;9.508;2023-11-19T01:42:29;4.70;;;4.05;;
5762;SDS011;2906;53.282;9.508;2023-11-19T01:43:31;5.35;;;4.70;;
5762;SDS011;2906;53.282;9.508;2023-11-19T01:44:33;4.93;;;4.43;;
5762;SDS011;2906;53.282;9.508;2023-11-19T01:45:34;6.28;;;4.47;;
5762;SDS011;2906;53.282;9.508;2023-11-19T01:46:37;5.28;;;4.57;;
5762;SDS011;2906;53.282;9.508;2023-11-19T01:47:41;6.00;;;4.70;;
5762;SDS011;2906;53.282;9.508;2023-11-19T01:48:44;5.47;;;4.97;;
5762;SDS011;2906;53.282;9.508;2023-11-19T01:49:45;5.10;;;4.60;;
5762;SDS011;2906;53.282;9.508;2023-11-19T01:50:48;6.25;;;4.95;;
5762;SDS011;2906;53.282;9.508;2023-11-19T01:51:49;7.30;;;5.00;;
5762;SDS011;2906;53.282;9.508;2023-11-19T01:52:51;5.80;;;5.20;;
5762;SDS011;2906;53.282;9.508;2023-11-19T01:53:53;5.30;;;4.80;;
5762;SDS011;2906;53.282;9.508;2023-11-19T01:54:56;5.10;;;4.40;;
5762;SDS011;2906;53.282;9.508;2023-11-19T01:55:58;6.90;;;4.70;;
5762;SDS011;2906;53.282;9.508;2023-11-19T01:57:00;4.72;;;4.32;;
5762;SDS011;2906;53.282;9.508;2023-11-19T01:58:02;5.32;;;4.30;;
5762;SDS011;2906;53.282;9.508;2023-11-19T01:59:04;6.00;;;5.07;;
5762;SDS011;2906;53.282;9.508;2023-11-19T02:00:06;5.40;;;4.88;;
5762;SDS011;2906;53.282;9.508;2023-11-19T02:01:11;5.55;;;5.00;;
5762;SDS011;2906;53.282;9.508;2023-11-19T02:02:13;9.63;;;4.63;;
5762;SDS011;2906;53.282;9.508;2023-11-19T02:03:17;8.75;;;5.28;;
5762;SDS011;2906;53.282;9.508;2023-11-19T02:04:19;5.80;;;5.20;;
5762;SDS011;2906;53.282;9.508;2023-11-19T02:05:21;5.35;;;4.85;;
5762;SDS011;2906;53.282;9.508;2023-11-19T02:06:23;7.60;;;5.20;;
5762;SDS011;2906;53.282;9.508;2023-11-19T02:07:26;9.73;;;5.90;;
5762;SDS011;2906;53.282;9.508;2023-11-19T02:08:28;6.50;;;5.35;;
5762;SDS011;2906;53.282;9.508;2023-11-19T02:09:31;6.38;;;5.22;;
5762;SDS011;2906;53.282;9.508;2023-11-19T02:10:32;6.28;;;5.03;;
5762;SDS011;2906;53.282;9.508;2023-11-19T02:11:34;8.95;;;5.70;;
5762;SDS011;2906;53.282;9.508;2023-11-19T02:12:36;6.97;;;6.03;;
5762;SDS011;2906;53.282;9.508;2023-11-19T02:13:38;6.50;;;5.65;;
5762;SDS011;2906;53.282;9.508;2023-11-19T02:14:41;6.38;;;5.55;;
5762;SDS011;2906;53.282;9.508;2023-11-19T02:15:43;10.45;;;6.10;;
5762;SDS011;2906;53.282;9.508;2023-11-19T02:16:45;9.27;;;5.80;;
5762;SDS011;2906;53.282;9.508;2023-11-19T02:17:47;8.27;;;6.53;;
5762;SDS011;2906;53.282;9.508;2023-11-19T02:18:50;9.23;;;5.70;;
5762;SDS011;2906;53.282;9.508;2023-11-19T02:19:52;9.75;;;6.30;;
5762;SDS011;2906;53.282;9.508;2023-11-19T02:20:53;8.20;;;6.53;;
5762;SDS011;2906;53.282;9.508;2023-11-19T02:21:56;7.03;;;6.00;;
5762;SDS011;2906;53.282;9.508;2023-11-19T02:22:57;7.50;;;6.20;;
5762;SDS011;2906;53.282;9.508;2023-11-19T02:23:59;6.13;;;5.50;;
5762;SDS011;2906;53.282;9.508;2023-11-19T02:25:03;6.20;;;5.60;;
5762;SDS011;2906;53.282;9.508;2023-11-19T02:26:09;6.72;;;5.70;;
5762;SDS011;2906;53.282;9.508;2023-11-19T02:27:16;7.18;;;5.32;;
5762;SDS011;2906;53.282;9.508;2023-11-19T02:28:19;6.80;;;5.97;;
5762;SDS011;2906;53.282;9.508;2023-11-19T02:29:22;7.10;;;5.85;;
5762;SDS011;2906;53.282;9.508;2023-11-19T02:30:23;6.28;;;5.68;;
5762;SDS011;2906;53.282;9.508;2023-11-19T02:31:26;6.35;;;5.35;;
5762;SDS011;2906;53.282;9.508;2023-11-19T02:32:27;7.45;;;6.07;;
5762;SDS011;2906;53.282;9.508;2023-11-19T02:33:30;7.07;;;5.80;;
5762;SDS011;2906;53.282;9.508;2023-11-19T02:34:32;7.07;;;6.30;;
5762;SDS011;2906;53.282;9.508;2023-11-19T02:35:34;6.35;;;5.30;;
5762;SDS011;2906;53.282;9.508;2023-11-19T02:36:35;7.05;;;5.80;;
5762;SDS011;2906;53.282;9.508;2023-11-19T02:37:38;7.32;;;5.68;;
5762;SDS011;2906;53.282;9.508;2023-11-19T02:38:39;7.68;;;6.05;;
5762;SDS011;2906;53.282;9.508;2023-11-19T02:39:42;7.47;;;5.20;;
5762;SDS011;2906;53.282;9.508;2023-11-19T02:40:44;6.63;;;5.50;;
5762;SDS011;2906;53.282;9.508;2023-11-19T02:41:46;7.30;;;5.57;;
5762;SDS011;2906;53.282;9.508;2023-11-19T02:42:47;6.32;;;5.32;;
5762;SDS011;2906;53.282;9.508;2023-11-19T02:43:51;6.15;;;5.22;;
5762;SDS011;2906;53.282;9.508;2023-11-19T02:44:52;6.13;;;5.28;;
5762;SDS011;2906;53.282;9.508;2023-11-19T02:45:54;8.18;;;5.90;;
5762;SDS011;2906;53.282;9.508;2023-11-19T02:46:55;6.70;;;5.70;;
5762;SDS011;2906;53.282;9.508;2023-11-19T02:47:59;5.63;;;5.03;;
5762;SDS011;2906;53.282;9.508;2023-11-19T02:49:01;6.65;;;5.43;;
5762;SDS011;2906;53.282;9.508;2023-11-19T02:50:04;6.70;;;5.90;;
5762;SDS011;2906;53.282;9.508;2023-11-19T02:51:07;5.70;;;5.10;;
5762;SDS011;2906;53.282;9.508;2023-11-19T02:52:09;5.60;;;5.00;;
5762;SDS011;2906;53.282;9.508;2023-11-19T02:53:12;5.90;;;5.00;;
5762;SDS011;2906;53.282;9.508;2023-11-19T02:54:13;5.72;;;5.05;;
5762;SDS011;2906;53.282;9.508;2023-11-19T02:55:15;7.38;;;5.65;;
5762;SDS011;2906;53.282;9.508;2023-11-19T02:56:17;6.97;;;6.28;;
5762;SDS011;2906;53.282;9.508;2023-11-19T02:57:25;6.68;;;5.60;;
5762;SDS011;2906;53.282;9.508;2023-11-19T02:58:31;8.13;;;6.20;;
5762;SDS011;2906;53.282;9.508;2023-11-19T02:59:38;7.70;;;6.28;;
5762;SDS011;2906;53.282;9.508;2023-11-19T03:00:41;8.02;;;6.30;;
5762;SDS011;2906;53.282;9.508;2023-11-19T03:01:52;6.90;;;5.38;;
5762;SDS011;2906;53.282;9.508;2023-11-19T03:02:53;8.00;;;6.15;;
5762;SDS011;2906;53.282;9.508;2023-11-19T03:03:59;8.20;;;5.78;;
5762;SDS011;2906;53.282;9.508;2023-11-19T03:05:02;9.90;;;6.45;;
5762;SDS011;2906;53.282;9.508;2023-11-19T03:06:04;9.23;;;6.40;;
5762;SDS011;2906;53.282;9.508;2023-11-19T03:07:05;12.02;;;6.60;;
5762;SDS011;2906;53.282;9.508;2023-11-19T03:08:08;9.70;;;7.28;;
5762;SDS011;2906;53.282;9.508;2023-11-19T03:09:09;9.07;;;6.78;;
5762;SDS011;2906;53.282;9.508;2023-11-19T03:10:11;9.85;;;7.60;;
5762;SDS011;2906;53.282;9.508;2023-11-19T03:11:13;8.43;;;7.10;;
5762;SDS011;2906;53.282;9.508;2023-11-19T03:12:16;10.10;;;7.30;;
5762;SDS011;2906;53.282;9.508;2023-11-19T03:13:17;11.05;;;8.20;;
5762;SDS011;2906;53.282;9.508;2023-11-19T03:14:19;9.35;;;7.88;;
5762;SDS011;2906;53.282;9.508;2023-11-19T03:15:23;9.30;;;7.32;;
5762;SDS011;2906;53.282;9.508;2023-11-19T03:16:26;23.17;;;7.80;;
5762;SDS011;2906;53.282;9.508;2023-11-19T03:17:27;10.38;;;8.00;;
5762;SDS011;2906;53.282;9.508;2023-11-19T03:18:29;12.73;;;7.85;;
5762;SDS011;2906;53.282;9.508;2023-11-19T03:19:30;13.35;;;8.27;;
5762;SDS011;2906;53.282;9.508;2023-11-19T03:20:32;10.93;;;7.53;;
5762;SDS011;2906;53.282;9.508;2023-11-19T03:21:34;12.57;;;8.93;;
5762;SDS011;2906;53.282;9.508;2023-11-19T03:22:36;13.20;;;8.57;;
5762;SDS011;2906;53.282;9.508;2023-11-19T03:23:38;14.88;;;10.13;;
5762;SDS011;2906;53.282;9.508;2023-11-19T03:24:41;13.75;;;9.23;;
5762;SDS011;2906;53.282;9.508;2023-11-19T03:25:42;13.90;;;9.48;;
5762;SDS011;2906;53.282;9.508;2023-11-19T03:26:48;16.15;;;9.45;;
5762;SDS011;2906;53.282;9.508;2023-11-19T03:27:50;13.55;;;9.32;;
5762;SDS011;2906;53.282;9.508;2023-11-19T03:28:51;19.50;;;12.10;;
5762;SDS011;2906;53.282;9.508;2023-11-19T03:29:54;15.80;;;10.90;;
5762;SDS011;2906;53.282;9.508;2023-11-19T03:30:57;16.80;;;11.10;;
5762;SDS011;2906;53.282;9.508;2023-11-19T03:31:59;17.60;;;10.52;;
5762;SDS011;2906;53.282;9.508;2023-11-19T03:33:00;16.42;;;10.68;;
5762;SDS011;2906;53.282;9.508;2023-11-19T03:34:03;17.83;;;11.63;;
5762;SDS011;2906;53.282;9.508;2023-11-19T03:35:05;16.05;;;10.43;;
5762;SDS011;2906;53.282;9.508;2023-11-19T03:36:09;21.88;;;12.32;;
5762;SDS011;2906;53.282;9.508;2023-11-19T03:37:10;28.75;;;12.13;;
5762;SDS011;2906;53.282;9.508;2023-11-19T03:38:16;18.08;;;11.52;;
5762;SDS011;2906;53.282;9.508;2023-11-19T03:39:17;26.70;;;12.25;;
5762;SDS011;2906;53.282;9.508;2023-11-19T03:40:20;23.30;;;12.18;;
5762;SDS011;2906;53.282;9.508;2023-11-19T03:41:21;22.63;;;12.30;;
5762;SDS011;2906;53.282;9.508;2023-11-19T03:42:23;23.35;;;12.55;;
5762;SDS011;2906;53.282;9.508;2023-11-19T03:43:25;26.52;;;12.65;;
5762;SDS011;2906;53.282;9.508;2023-11-19T03:44:27;29.27;;;13.10;;
5762;SDS011;2906;53.282;9.508;2023-11-19T03:45:28;23.05;;;13.65;;
5762;SDS011;2906;53.282;9.508;2023-11-19T03:46:32;24.75;;;13.73;;
5762;SDS011;2906;53.282;9.508;2023-11-19T03:47:35;23.45;;;13.88;;
5762;SDS011;2906;53.282;9.508;2023-11-19T03:48:36;24.10;;;13.70;;
5762;SDS011;2906;53.282;9.508;2023-11-19T03:49:39;24.77;;;14.93;;
5762;SDS011;2906;53.282;9.508;2023-11-19T03:50:40;26.13;;;15.10;;
5762;SDS011;2906;53.282;9.508;2023-11-19T03:51:41;25.20;;;15.32;;
5762;SDS011;2906;53.282;9.508;2023-11-19T03:52:44;28.15;;;15.30;;
5762;SDS011;2906;53.282;9.508;2023-11-19T03:53:45;29.10;;;16.13;;
5762;SDS011;2906;53.282;9.508;2023-11-19T03:54:47;26.85;;;15.43;;
5762;SDS011;2906;53.282;9.508;2023-11-19T03:55:49;24.30;;;14.55;;
5762;SDS011;2906;53.282;9.508;2023-11-19T03:56:52;31.08;;;15.63;;
5762;SDS011;2906;53.282;9.508;2023-11-19T03:57:53;28.80;;;15.98;;
5762;SDS011;2906;53.282;9.508;2023-11-19T03:58:55;32.45;;;16.27;;
5762;SDS011;2906;53.282;9.508;2023-11-19T03:59:57;27.25;;;15.90;;
5762;SDS011;2906;53.282;9.508;2023-11-19T04:00:59;33.63;;;16.20;;
5762;SDS011;2906;53.282;9.508;2023-11-19T04:02:02;29.08;;;16.92;;
5762;SDS011;2906;53.282;9.508;2023-11-19T04:03:05;25.50;;;15.50;;
5762;SDS011;2906;53.282;9.508;2023-11-19T04:04:06;28.80;;;16.77;;
5762;SDS011;2906;53.282;9.508;2023-11-19T04:05:08;27.08;;;16.48;;
5762;SDS011;2906;53.282;9.508;2023-11-19T04:06:10;26.88;;;16.55;;
5762;SDS011;2906;53.282;9.508;2023-11-19T04:07:12;32.30;;;16.95;;
5762;SDS011;2906;53.282;9.508;2023-11-19T04:08:13;31.38;;;17.25;;
5762;SDS011;2906;53.282;9.508;2023-11-19T04:09:16;32.20;;;17.70;;
5762;SDS011;2906;53.282;9.508;2023-11-19T04:10:17;30.48;;;16.38;;
5762;SDS011;2906;53.282;9.508;2023-11-19T04:11:20;28.48;;;17.30;;
5762;SDS011;2906;53.282;9.508;2023-11-19T04:12:22;30.55;;;17.58;;
5762;SDS011;2906;53.282;9.508;2023-11-19T04:13:23;33.85;;;18.25;;
5762;SDS011;2906;53.282;9.508;2023-11-19T04:14:25;37.88;;;18.33;;
5762;SDS011;2906;53.282;9.508;2023-11-19T04:15:27;34.70;;;17.77;;
5762;SDS011;2906;53.282;9.508;2023-11-19T04:16:30;32.45;;;18.40;;
5762;SDS011;2906;53.282;9.508;2023-11-19T04:17:33;34.22;;;19.45;;
5762;SDS011;2906;53.282;9.508;2023-11-19T04:18:34;34.30;;;18.92;;
5762;SDS011;2906;53.282;9.508;2023-11-19T04:19:37;34.72;;;20.40;;
5762;SDS011;2906;53.282;9.508;2023-11-19T04:20:41;43.63;;;18.02;;
5762;SDS011;2906;53.282;9.508;2023-11-19T04:21:43;36.50;;;19.20;;
5762;SDS011;2906;53.282;9.508;2023-11-19T04:22:45;32.90;;;20.17;;
5762;SDS011;2906;53.282;9.508;2023-11-19T04:23:47;33.67;;;20.00;;
5762;SDS011;2906;53.282;9.508;2023-11-19T04:24:48;43.33;;;20.10;;
5762;SDS011;2906;53.282;9.508;2023-11-19T04:25:51;39.55;;;19.63;;
5762;SDS011;2906;53.282;9.508;2023-11-19T04:26:52;38.60;;;18.85;;
5762;SDS011;2906;53.282;9.508;2023-11-19T04:27:54;36.03;;;19.35;;
5762;SDS011;2906;53.282;9.508;2023-11-19T04:28:56;35.88;;;19.20;;
5762;SDS011;2906;53.282;9.508;2023-11-19T04:29:58;37.47;;;19.13;;
5762;SDS011;2906;53.282;9.508;2023-11-19T04:31:01;41.92;;;18.40;;
5762;SDS011;2906;53.282;9.508;2023-11-19T04:32:05;41.08;;;19.40;;
5762;SDS011;2906;53.282;9.508;2023-11-19T04:33:07;38.88;;;19.85;;
5762;SDS011;2906;53.282;9.508;2023-11-19T04:34:10;42.17;;;18.42;;
5762;SDS011;2906;53.282;9.508;2023-11-19T04:35:11;39.35;;;20.00;;
5762;SDS011;2906;53.282;9.508;2023-11-19T04:36:13;32.97;;;18.02;;
5762;SDS011;2906;53.282;9.508;2023-11-19T04:37:19;42.92;;;19.17;;
5762;SDS011;2906;53.282;9.508;2023-11-19T04:38:21;35.28;;;19.85;;
5762;SDS011;2906;53.282;9.508;2023-11-19T04:39:22;42.00;;;19.30;;
5762;SDS011;2906;53.282;9.508;2023-11-19T04:40:25;43.10;;;19.70;;
5762;SDS011;2906;53.282;9.508;2023-11-19T04:41:26;34.83;;;18.48;;
5762;SDS011;2906;53.282;9.508;2023-11-19T04:42:28;41.67;;;18.88;;
5762;SDS011;2906;53.282;9.508;2023-11-19T04:43:29;40.08;;;20.27;;
5762;SDS011;2906;53.282;9.508;2023-11-19T04:44:32;46.03;;;21.40;;
5762;SDS011;2906;53.282;9.508;2023-11-19T04:45:33;34.33;;;18.80;;
5762;SDS011;2906;53.282;9.508;2023-11-19T04:46:35;41.10;;;20.05;;
5762;SDS011;2906;53.282;9.508;2023-11-19T04:47:37;45.53;;;19.25;;
5762;SDS011;2906;53.282;9.508;2023-11-19T04:48:41;47.15;;;19.48;;
5762;SDS011;2906;53.282;9.508;2023-11-19T04:49:42;48.33;;;20.33;;
5762;SDS011;2906;53.282;9.508;2023-11-19T04:50:45;43.63;;;19.63;;
5762;SDS011;2906;53.282;9.508;2023-11-19T04:51:46;49.88;;;19.90;;
5762;SDS011;2906;53.282;9.508;2023-11-19T04:52:48;40.50;;;18.27;;
5762;SDS011;2906;53.282;9.508;2023-11-19T04:53:50;46.42;;;19.73;;
5762;SDS011;2906;53.282;9.508;2023-11-19T04:54:52;47.85;;;20.65;;
5762;SDS011;2906;53.282;9.508;2023-11-19T04:55:54;38.28;;;18.30;;
5762;SDS011;2906;53.282;9.508;2023-11-19T04:56:56;47.58;;;19.70;;
5762;SDS011;2906;53.282;9.508;2023-11-19T04:57:57;47.15;;;20.00;;
5762;SDS011;2906;53.282;9.508;2023-11-19T04:58:59;39.63;;;20.17;;
5762;SDS011;2906;53.282;9.508;2023-11-19T05:00:00;46.38;;;20.15;;
5762;SDS011;2906;53.282;9.508;2023-11-19T05:01:05;39.08;;;19.10;;
5762;SDS011;2906;53.282;9.508;2023-11-19T05:02:07;54.35;;;19.58;;
5762;SDS011;2906;53.282;9.508;2023-11-19T05:03:09;52.33;;;19.58;;
5762;SDS011;2906;53.282;9.508;2023-11-19T05:04:13;44.55;;;19.77;;
5762;SDS011;2906;53.282;9.508;2023-11-19T05:05:15;40.70;;;19.35;;
5762;SDS011;2906;53.282;9.508;2023-11-19T05:06:17;46.50;;;20.52;;
5762;SDS011;2906;53.282;9.508;2023-11-19T05:07:19;55.65;;;19.02;;
5762;SDS011;2906;53.282;9.508;2023-11-19T05:08:21;41.20;;;19.30;;
5762;SDS011;2906;53.282;9.508;2023-11-19T05:09:22;49.53;;;19.73;;
5762;SDS011;2906;53.282;9.508;2023-11-19T05:10:24;44.63;;;19.90;;
5762;SDS011;2906;53.282;9.508;2023-11-19T05:11:26;51.47;;;20.15;;
5762;SDS011;2906;53.282;9.508;2023-11-19T05:12:29;47.22;;;20.02;;
5762;SDS011;2906;53.282;9.508;2023-11-19T05:13:31;47.90;;;19.40;;
5762;SDS011;2906;53.282;9.508;2023-11-19T05:14:33;39.33;;;19.33;;
5762;SDS011;2906;53.282;9.508;2023-11-19T05:15:36;31.35;;;18.48;;
5762;SDS011;2906;53.282;9.508;2023-11-19T05:16:39;38.28;;;20.52;;
5762;SDS011;2906;53.282;9.508;2023-11-19T05:17:40;44.15;;;17.40;;
5762;SDS011;2906;53.282;9.508;2023-11-19T05:18:42;49.70;;;19.83;;
5762;SDS011;2906;53.282;9.508;2023-11-19T05:19:45;45.28;;;19.50;;
5762;SDS011;2906;53.282;9.508;2023-11-19T05:20:48;48.47;;;19.15;;
5762;SDS011;2906;53.282;9.508;2023-11-19T05:21:50;42.45;;;19.60;;
5762;SDS011;2906;53.282;9.508;2023-11-19T05:22:52;47.72;;;18.90;;
5762;SDS011;2906;53.282;9.508;2023-11-19T05:23:54;39.40;;;19.42;;
5762;SDS011;2906;53.282;9.508;2023-11-19T05:24:57;56.65;;;20.15;;
5762;SDS011;2906;53.282;9.508;2023-11-19T05:26:02;53.30;;;18.75;;
5762;SDS011;2906;53.282;9.508;2023-11-19T05:27:04;50.47;;;19.15;;
5762;SDS011;2906;53.282;9.508;2023-11-19T05:28:07;41.60;;;17.63;;
5762;SDS011;2906;53.282;9.508;2023-11-19T05:29:08;40.63;;;18.45;;
5762;SDS011;2906;53.282;9.508;2023-11-19T05:30:11;41.35;;;18.23;;
5762;SDS011;2906;53.282;9.508;2023-11-19T05:31:12;40.83;;;18.48;;
5762;SDS011;2906;53.282;9.508;2023-11-19T05:32:15;41.75;;;18.67;;
5762;SDS011;2906;53.282;9.508;2023-11-19T05:33:16;32.05;;;16.58;;
5762;SDS011;2906;53.282;9.508;2023-11-19T05:34:18;50.33;;;18.75;;
5762;SDS011;2906;53.282;9.508;2023-11-19T05:35:21;37.55;;;16.60;;
5762;SDS011;2906;53.282;9.508;2023-11-19T05:36:23;37.25;;;17.75;;
5762;SDS011;2906;53.282;9.508;2023-11-19T05:37:25;47.75;;;19.38;;
5762;SDS011;2906;53.282;9.508;2023-11-19T05:38:28;49.58;;;18.48;;
5762;SDS011;2906;53.282;9.508;2023-11-19T05:39:30;39.53;;;17.95;;
5762;SDS011;2906;53.282;9.508;2023-11-19T05:40:32;44.25;;;18.38;;
5762;SDS011;2906;53.282;9.508;2023-11-19T05:41:34;42.13;;;18.00;;
5762;SDS011;2906;53.282;9.508;2023-11-19T05:42:37;42.03;;;18.17;;
5762;SDS011;2906;53.282;9.508;2023-11-19T05:43:38;45.30;;;17.13;;
5762;SDS011;2906;53.282;9.508;2023-11-19T05:44:41;47.67;;;18.92;;
5762;SDS011;2906;53.282;9.508;2023-11-19T05:45:42;50.35;;;19.15;;
5762;SDS011;2906;53.282;9.508;2023-11-19T05:46:44;49.13;;;18.10;;
5762;SDS011;2906;53.282;9.508;2023-11-19T05:47:46;42.40;;;18.40;;
5762;SDS011;2906;53.282;9.508;2023-11-19T05:48:47;36.63;;;17.10;;
5762;SDS011;2906;53.282;9.508;2023-11-19T05:49:51;39.55;;;17.48;;
5762;SDS011;2906;53.282;9.508;2023-11-19T05:50:54;40.97;;;17.48;;
5762;SDS011;2906;53.282;9.508;2023-11-19T05:51:58;48.58;;;17.33;;
5762;SDS011;2906;53.282;9.508;2023-11-19T05:52:59;41.72;;;16.73;;
5762;SDS011;2906;53.282;9.508;2023-11-19T05:54:01;37.72;;;17.45;;
5762;SDS011;2906;53.282;9.508;2023-11-19T05:55:03;51.22;;;17.42;;
5762;SDS011;2906;53.282;9.508;2023-11-19T05:56:11;40.33;;;16.33;;
5762;SDS011;2906;53.282;9.508;2023-11-19T05:57:12;39.33;;;16.50;;
5762;SDS011;2906;53.282;9.508;2023-11-19T05:58:14;47.67;;;16.17;;
5762;SDS011;2906;53.282;9.508;2023-11-19T05:59:16;37.05;;;16.15;;
5762;SDS011;2906;53.282;9.508;2023-11-19T06:00:19;46.25;;;17.05;;
5762;SDS011;2906;53.282;9.508;2023-11-19T06:01:20;36.10;;;15.82;;
5762;SDS011;2906;53.282;9.508;2023-11-19T06:02:22;48.15;;;17.45;;
5762;SDS011;2906;53.282;9.508;2023-11-19T06:03:24;42.20;;;15.80;;
5762;SDS011;2906;53.282;9.508;2023-11-19T06:04:26;38.03;;;16.40;;
5762;SDS011;2906;53.282;9.508;2023-11-19T06:05:27;29.35;;;14.95;;
5762;SDS011;2906;53.282;9.508;2023-11-19T06:06:31;36.47;;;15.30;;
5762;SDS011;2906;53.282;9.508;2023-11-19T06:07:32;35.25;;;15.18;;
5762;SDS011;2906;53.282;9.508;2023-11-19T06:08:36;36.83;;;14.68;;
5762;SDS011;2906;53.282;9.508;2023-11-19T06:09:38;46.75;;;17.60;;
5762;SDS011;2906;53.282;9.508;2023-11-19T06:10:40;44.70;;;16.17;;
5762;SDS011;2906;53.282;9.508;2023-11-19T06:11:42;43.55;;;15.18;;
5762;SDS011;2906;53.282;9.508;2023-11-19T06:12:44;49.90;;;15.73;;
5762;SDS011;2906;53.282;9.508;2023-11-19T06:13:47;51.72;;;15.40;;
5762;SDS011;2906;53.282;9.508;2023-11-19T06:14:50;43.53;;;15.90;;
5762;SDS011;2906;53.282;9.508;2023-11-19T06:15:53;48.33;;;15.43;;
5762;SDS011;2906;53.282;9.508;2023-11-19T06:16:54;41.30;;;14.68;;
5762;SDS011;2906;53.282;9.508;2023-11-19T06:17:57;43.45;;;14.65;;
5762;SDS011;2906;53.282;9.508;2023-11-19T06:19:01;41.95;;;15.43;;
5762;SDS011;2906;53.282;9.508;2023-11-19T06:20:03;56.95;;;16.17;;
5762;SDS011;2906;53.282;9.508;2023-11-19T06:21:05;52.35;;;15.65;;
5762;SDS011;2906;53.282;9.508;2023-11-19T06:22:08;40.45;;;14.80;;